createdAt,value
2023-03-22T00:01:53.876Z,13.84
2023-03-22T00:04:39.633Z,13.76
2023-03-22T00:07:26.650Z,13.66
2023-03-22T00:10:12.628Z,13.75
2023-03-22T00:12:58.386Z,13.68
2023-03-22T00:15:49.208Z,13.64
2023-03-22T00:18:35.188Z,13.64
2023-03-22T00:21:21.372Z,13.58
2023-03-22T00:24:07.645Z,13.57
2023-03-22T00:26:53.682Z,13.50
2023-03-22T00:29:39.508Z,13.51
2023-03-22T00:32:25.485Z,13.55
2023-03-22T00:35:12.250Z,13.57
2023-03-22T00:37:58.576Z,13.50
2023-03-22T00:40:44.859Z,13.56
2023-03-22T00:43:30.633Z,13.50
2023-03-22T00:46:19.384Z,13.52
2023-03-22T00:49:05.904Z,13.53
2023-03-22T00:51:51.801Z,13.56
2023-03-22T00:54:37.635Z,13.55
2023-03-22T00:57:23.948Z,13.56
2023-03-22T01:00:16.209Z,13.45
2023-03-22T01:03:04.893Z,13.52
2023-03-22T01:05:55.525Z,13.55
2023-03-22T01:08:42.054Z,13.53
2023-03-22T01:11:28.428Z,13.45
2023-03-22T01:14:14.238Z,13.49
2023-03-22T01:17:00.465Z,13.44
2023-03-22T01:19:46.692Z,13.41
2023-03-22T01:22:33.109Z,13.46
2023-03-22T01:25:19.079Z,13.22
2023-03-22T01:28:06.917Z,13.26
2023-03-22T01:30:53.075Z,13.30
2023-03-22T01:33:38.917Z,13.29
2023-03-22T01:36:24.817Z,13.26
2023-03-22T01:39:11.122Z,13.23
2023-03-22T01:41:59.229Z,13.17
2023-03-22T01:45:13.778Z,13.13
2023-03-22T01:48:22.144Z,13.06
2023-03-22T01:51:11.527Z,12.98
2023-03-22T01:54:18.717Z,13.07
2023-03-22T01:57:05.393Z,13.03
2023-03-22T01:59:57.694Z,12.97
2023-03-22T02:02:59.811Z,12.93
2023-03-22T02:05:54.184Z,12.82
2023-03-22T02:08:43.214Z,12.82
2023-03-22T02:11:41.557Z,12.81
2023-03-22T02:15:03.409Z,12.65
2023-03-22T02:18:16.466Z,12.77
2023-03-22T02:21:27.157Z,12.60
2023-03-22T02:24:32.919Z,12.67
2023-03-22T02:27:53.137Z,12.70
2023-03-22T02:31:17.774Z,12.51
2023-03-22T02:34:15.954Z,12.64
2023-03-22T02:37:23.107Z,12.47
2023-03-22T02:40:16.768Z,12.58
2023-03-22T02:43:18.891Z,12.52
2023-03-22T02:46:09.056Z,12.52
2023-03-22T02:49:07.848Z,12.48
2023-03-22T02:52:00.310Z,12.28
2023-03-22T02:54:58.278Z,12.36
2023-03-22T02:57:53.131Z,12.41
2023-03-22T03:00:40.757Z,12.41
2023-03-22T03:03:30.175Z,12.42
2023-03-22T03:06:19.352Z,12.41
2023-03-22T03:09:05.568Z,12.37
2023-03-22T03:11:53.489Z,12.23
2023-03-22T03:14:42.297Z,12.32
2023-03-22T03:17:37.508Z,12.30
2023-03-22T03:20:39.063Z,12.28
2023-03-22T03:23:38.201Z,12.24
2023-03-22T03:26:24.046Z,12.14
2023-03-22T03:29:28.745Z,12.25
2023-03-22T03:32:14.560Z,12.05
2023-03-22T03:35:06.750Z,12.18
2023-03-22T03:37:57.733Z,12.04
2023-03-22T03:40:50.483Z,11.98
2023-03-22T03:43:37.333Z,12.14
2023-03-22T03:46:24.518Z,12.13
2023-03-22T03:49:12.469Z,12.03
2023-03-22T03:51:59.890Z,12.15
2023-03-22T03:54:46.004Z,12.18
2023-03-22T03:57:36.943Z,12.19
2023-03-22T04:00:23.240Z,12.15
2023-03-22T04:03:27.910Z,12.17
2023-03-22T04:06:34.758Z,12.23
2023-03-22T04:09:29.543Z,12.20
2023-03-22T04:12:20.989Z,12.20
2023-03-22T04:15:36.286Z,12.09
2023-03-22T04:18:29.719Z,12.14
2023-03-22T04:21:19.836Z,12.19
2023-03-22T04:24:13.626Z,12.16
2023-03-22T04:27:01.953Z,12.19
2023-03-22T04:29:58.106Z,12.20
2023-03-22T04:33:07.188Z,12.26
2023-03-22T04:36:17.536Z,12.22
2023-03-22T04:39:35.772Z,12.11
2023-03-22T04:42:57.509Z,12.20
2023-03-22T04:46:04.419Z,12.23
2023-03-22T04:48:58.182Z,12.21
2023-03-22T04:51:44.063Z,12.17
2023-03-22T04:54:53.088Z,12.16
2023-03-22T04:57:38.885Z,12.14
2023-03-22T05:00:24.663Z,12.18
2023-03-22T05:03:12.162Z,12.05
2023-03-22T05:06:06.613Z,12.11
2023-03-22T05:09:24.843Z,12.10
2023-03-22T05:12:12.607Z,12.01
2023-03-22T05:15:06.756Z,12.11
2023-03-22T05:17:56.336Z,12.09
2023-03-22T05:20:43.442Z,12.14
2023-03-22T05:23:43.086Z,12.02
2023-03-22T05:26:30.712Z,12.12
2023-03-22T05:29:17.078Z,12.13
2023-03-22T05:32:19.674Z,12.17
2023-03-22T05:35:07.677Z,12.17
2023-03-22T05:37:58.466Z,12.21
2023-03-22T05:40:47.246Z,12.24
2023-03-22T05:43:33.771Z,12.27
2023-03-22T05:46:19.977Z,12.26
2023-03-22T05:49:28.413Z,12.37
2023-03-22T05:52:15.419Z,12.39
2023-03-22T05:55:27.640Z,12.41
2023-03-22T05:58:19.229Z,12.49
2023-03-22T06:01:09.424Z,12.60
2023-03-22T06:04:18.766Z,12.60
2023-03-22T06:07:15.461Z,12.69
2023-03-22T06:10:07.894Z,12.65
2023-03-22T06:12:55.467Z,12.76
2023-03-22T06:15:47.884Z,12.70
2023-03-22T06:18:40.795Z,12.72
2023-03-22T06:21:30.474Z,12.89
2023-03-22T06:24:16.752Z,12.89
2023-03-22T06:27:02.945Z,13.05
2023-03-22T06:29:51.026Z,13.07
2023-03-22T06:32:41.796Z,13.11
2023-03-22T06:35:28.196Z,13.16
2023-03-22T06:38:14.196Z,13.23
2023-03-22T06:41:00.066Z,13.35
2023-03-22T06:43:46.486Z,13.35
2023-03-22T06:50:04.100Z,13.48
2023-03-22T06:53:12.451Z,13.50
2023-03-22T06:55:59.203Z,13.67
2023-03-22T06:58:46.053Z,13.63
2023-03-22T07:01:32.416Z,13.66
2023-03-22T07:04:20.073Z,13.75
2023-03-22T07:07:07.478Z,13.89
2023-03-22T07:09:54.775Z,14.00
2023-03-22T07:12:41.128Z,13.99
2023-03-22T07:15:33.012Z,14.01
2023-03-22T07:18:24.432Z,14.04
2023-03-22T07:21:10.373Z,14.22
2023-03-22T07:23:59.171Z,14.29
2023-03-22T07:26:47.948Z,14.38
2023-03-22T07:29:38.373Z,14.45
2023-03-22T07:32:25.357Z,14.39
2023-03-22T07:35:24.999Z,14.59
2023-03-22T07:38:13.115Z,14.48
2023-03-22T07:41:00.604Z,14.67
2023-03-22T07:44:15.277Z,14.72
2023-03-22T07:47:10.949Z,14.81
2023-03-22T07:50:02.832Z,14.84
2023-03-22T07:52:52.864Z,14.96
2023-03-22T07:55:39.315Z,15.06
2023-03-22T07:58:25.270Z,15.06
2023-03-22T08:01:11.331Z,15.09
2023-03-22T08:04:16.023Z,15.16
2023-03-22T08:07:25.062Z,15.32
2023-03-22T08:10:11.934Z,15.45
2023-03-22T08:12:57.651Z,15.41
2023-03-22T08:15:45.517Z,15.51
2023-03-22T08:18:32.316Z,15.51
2023-03-22T08:21:18.261Z,15.59
2023-03-22T08:24:09.760Z,15.60
2023-03-22T08:27:28.115Z,15.78
2023-03-22T08:30:16.649Z,15.82
2023-03-22T08:33:02.883Z,15.82
2023-03-22T08:35:48.741Z,15.87
2023-03-22T08:38:34.801Z,15.89
2023-03-22T08:41:21.124Z,16.11
2023-03-22T08:44:07.208Z,16.19
2023-03-22T08:46:54.796Z,16.28
2023-03-22T08:49:41.862Z,16.30
2023-03-22T08:52:37.949Z,16.39
2023-03-22T08:55:28.408Z,16.51
2023-03-22T08:58:32.560Z,16.41
2023-03-22T09:01:41.742Z,16.61
2023-03-22T09:04:28.919Z,16.65
2023-03-22T09:07:17.562Z,16.83
2023-03-22T09:10:08.862Z,16.79
2023-03-22T09:12:57.729Z,16.99
2023-03-22T09:15:45.139Z,16.95
2023-03-22T09:18:38.319Z,16.97
2023-03-22T09:21:29.918Z,17.11
2023-03-22T09:24:36.122Z,17.17
2023-03-22T09:27:23.135Z,17.23
2023-03-22T09:30:10.330Z,17.13
2023-03-22T09:32:56.398Z,17.21
2023-03-22T09:35:43.674Z,17.37
2023-03-22T09:38:33.909Z,17.29
2023-03-22T09:41:52.766Z,17.03
2023-03-22T09:44:43.963Z,17.30
2023-03-22T09:47:51.741Z,17.15
2023-03-22T09:50:43.158Z,17.40
2023-03-22T09:53:32.612Z,17.45
2023-03-22T09:56:26.160Z,17.55
2023-03-22T09:59:44.380Z,17.61
2023-03-22T10:02:45.841Z,17.76
2023-03-22T10:05:39.893Z,17.89
2023-03-22T10:08:33.918Z,17.93
2023-03-22T10:12:05.114Z,17.83
2023-03-22T10:15:00.443Z,17.57
2023-03-22T10:17:51.451Z,17.73
2023-03-22T10:20:42.405Z,17.87
2023-03-22T10:23:44.232Z,17.94
2023-03-22T10:26:42.720Z,17.85
2023-03-22T10:29:38.966Z,17.91
2023-03-22T10:33:04.608Z,18.07
2023-03-22T10:35:51.556Z,18.15
2023-03-22T10:38:43.861Z,18.07
2023-03-22T10:41:30.395Z,18.11
2023-03-22T10:44:18.306Z,18.02
2023-03-22T10:47:08.233Z,18.02
2023-03-22T10:49:56.194Z,18.01
2023-03-22T10:52:50.345Z,17.95
2023-03-22T10:55:41.844Z,18.10
2023-03-22T10:58:35.024Z,18.09
2023-03-22T11:01:32.835Z,18.02
2023-03-22T11:04:20.727Z,18.13
2023-03-22T11:07:06.785Z,18.13
2023-03-22T11:10:22.015Z,18.17
2023-03-22T11:13:07.613Z,18.12
2023-03-22T11:16:02.409Z,18.23
2023-03-22T11:18:48.776Z,18.32
2023-03-22T11:21:35.106Z,18.31
2023-03-22T11:24:22.256Z,18.32
2023-03-22T11:27:33.123Z,18.24
2023-03-22T11:30:29.171Z,18.31
2023-03-22T11:33:18.605Z,18.30
2023-03-22T11:36:16.455Z,18.31
2023-03-22T11:39:07.889Z,18.46
2023-03-22T11:41:57.719Z,18.45
2023-03-22T11:44:44.632Z,18.44
2023-03-22T11:47:34.641Z,18.61
2023-03-22T11:50:32.924Z,18.51
2023-03-22T11:53:23.206Z,18.57
2023-03-22T11:56:11.444Z,18.58
2023-03-22T11:59:16.653Z,18.63
2023-03-22T12:02:26.858Z,18.57
2023-03-22T12:05:19.340Z,18.52
2023-03-22T12:08:17.014Z,18.55
2023-03-22T12:11:06.649Z,18.44
2023-03-22T12:14:02.039Z,18.50
2023-03-22T12:16:56.226Z,18.47
2023-03-22T12:19:48.628Z,18.48
2023-03-22T12:22:35.622Z,18.42
2023-03-22T12:25:25.780Z,18.48
2023-03-22T12:28:18.807Z,18.57
2023-03-22T12:31:08.048Z,18.62
2023-03-22T12:33:55.372Z,18.67
2023-03-22T12:36:43.931Z,18.70
2023-03-22T12:39:41.274Z,18.63
2023-03-22T12:42:27.411Z,18.78
2023-03-22T12:45:17.404Z,18.68
2023-03-22T12:48:25.526Z,18.82
2023-03-22T12:51:13.647Z,18.67
2023-03-22T12:54:00.809Z,18.83
2023-03-22T12:56:47.021Z,18.78
2023-03-22T12:59:33.046Z,18.87
2023-03-22T13:02:25.120Z,18.85
2023-03-22T13:05:11.216Z,18.92
2023-03-22T13:07:59.375Z,18.92
2023-03-22T13:10:58.003Z,18.85
2023-03-22T13:13:46.218Z,19.00
2023-03-22T13:16:53.247Z,18.89
2023-03-22T13:19:39.394Z,18.95
2023-03-22T13:22:30.558Z,18.97
2023-03-22T13:25:29.110Z,18.90
2023-03-22T13:28:26.386Z,18.87
2023-03-22T13:31:32.379Z,18.93
2023-03-22T13:34:20.998Z,19.03
2023-03-22T13:37:17.968Z,19.03
2023-03-22T13:40:32.415Z,19.11
2023-03-22T13:43:34.637Z,19.28
2023-03-22T13:46:20.862Z,19.34
2023-03-22T13:49:26.706Z,19.42
2023-03-22T13:52:34.428Z,19.53
2023-03-22T13:55:42.545Z,19.56
2023-03-22T13:58:50.794Z,19.98
2023-03-22T14:01:47.662Z,20.18
2023-03-22T14:04:39.542Z,20.56
2023-03-22T14:07:33.454Z,20.87
2023-03-22T14:10:31.709Z,21.05
2023-03-22T14:13:27.726Z,21.12
2023-03-22T14:16:22.483Z,21.14
2023-03-22T14:19:16.406Z,21.07
